Brown City, Michigan
Current Conditions -  °F | °C
As of 9:54 PM on Tuesday 25 Nov 2014 (Local Time) from KD95 Reporting Station
Overcast Overcast  
Wind Chill: 24°   Ceiling: 2200
Heat Index: 30°   Visibility: 10mi
Dew Point: 22°   Wind: 6mph
Humidity: 72%   Direction: 260°W
Pressure: 30.18"   Gusts: NA
Location:  43.21°N, 82.99°W
Report Text: KD95 260254Z AUTO 26005KT 10SM OVC022 M01/M05 A3018 RMK AO2 T10101055
Loading
Personal Weather Stations






























Interactive Weather Map New forecast layout! Learn more

10-Day Weather Forecast

Advertisements
Track Severe Weather on mobile